BCI weather

Barcaldine Airport
Barcaldine, Queensland, Australia

Public forecast

Using degrees Celsius for public forecast. Weather courtesy of forecast.io.

METAR (pilot weather report)

Closest report is Longreach Airport, 57.1 nm (105.7 km) W. Retrieved 2019/04/20 03:00 UTC (1 hour ago):

YLRE 200300Z AUTO 11011KT 9999 // NCD 30/14 Q1016

TAF (pilot weather forecast)

Forecast is more than 6 hours old.

Closest forecast is Rockhampton Airport, 284.8 nm (527.5 km) E. Retrieved 2019/04/19 18:36 UTC (10 hours ago):

TAF TAF YBRK 191644Z 1918/2018 13007KT 9999 SCT025 SCT040 FM192300 11014KT 9999 -SHRA SCT030 SCT050 FM201000 13008KT 9999 SCT025 BKN040 INTER 2000/2008 3000 SHRA SCT015 BKN030